sensor_id;sensor_type;location;lat;lon;timestamp;P1;durP1;ratioP1;P2;durP2;ratioP2
49175;SDS011;35012;47.200;9.748;2023-05-29T00:01:12;6.00;;;5.10;;
49175;SDS011;35012;47.200;9.748;2023-05-29T00:03:37;6.07;;;4.63;;
49175;SDS011;35012;47.200;9.748;2023-05-29T00:06:03;8.60;;;5.37;;
49175;SDS011;35012;47.200;9.748;2023-05-29T00:08:29;6.57;;;4.70;;
49175;SDS011;35012;47.200;9.748;2023-05-29T00:10:54;7.80;;;5.20;;
49175;SDS011;35012;47.200;9.748;2023-05-29T00:13:20;7.80;;;5.00;;
49175;SDS011;35012;47.200;9.748;2023-05-29T00:15:45;7.83;;;4.80;;
49175;SDS011;35012;47.200;9.748;2023-05-29T00:18:11;5.23;;;4.73;;
49175;SDS011;35012;47.200;9.748;2023-05-29T00:20:37;6.03;;;5.00;;
49175;SDS011;35012;47.200;9.748;2023-05-29T00:23:03;6.20;;;5.03;;
49175;SDS011;35012;47.200;9.748;2023-05-29T00:25:31;8.30;;;5.17;;
49175;SDS011;35012;47.200;9.748;2023-05-29T00:27:57;6.90;;;5.00;;
49175;SDS011;35012;47.200;9.748;2023-05-29T00:30:22;7.63;;;5.00;;
49175;SDS011;35012;47.200;9.748;2023-05-29T00:32:48;6.80;;;4.90;;
49175;SDS011;35012;47.200;9.748;2023-05-29T00:35:13;7.20;;;5.63;;
49175;SDS011;35012;47.200;9.748;2023-05-29T00:37:39;7.53;;;5.50;;
49175;SDS011;35012;47.200;9.748;2023-05-29T00:40:04;7.20;;;5.30;;
49175;SDS011;35012;47.200;9.748;2023-05-29T00:42:31;7.90;;;4.90;;
49175;SDS011;35012;47.200;9.748;2023-05-29T00:44:57;7.27;;;4.70;;
49175;SDS011;35012;47.200;9.748;2023-05-29T00:47:23;6.23;;;5.17;;
49175;SDS011;35012;47.200;9.748;2023-05-29T00:49:48;9.20;;;5.07;;
49175;SDS011;35012;47.200;9.748;2023-05-29T00:52:16;7.97;;;5.20;;
49175;SDS011;35012;47.200;9.748;2023-05-29T00:54:43;9.40;;;5.07;;
49175;SDS011;35012;47.200;9.748;2023-05-29T00:57:09;6.70;;;4.90;;
49175;SDS011;35012;47.200;9.748;2023-05-29T00:59:36;7.63;;;5.50;;
49175;SDS011;35012;47.200;9.748;2023-05-29T01:02:02;9.10;;;5.07;;
49175;SDS011;35012;47.200;9.748;2023-05-29T01:04:27;9.53;;;5.70;;
49175;SDS011;35012;47.200;9.748;2023-05-29T01:06:53;8.00;;;5.30;;
49175;SDS011;35012;47.200;9.748;2023-05-29T01:09:19;6.60;;;5.07;;
49175;SDS011;35012;47.200;9.748;2023-05-29T01:14:31;6.43;;;5.03;;
49175;SDS011;35012;47.200;9.748;2023-05-29T01:17:17;6.67;;;5.30;;
49175;SDS011;35012;47.200;9.748;2023-05-29T01:19:47;6.80;;;5.00;;
49175;SDS011;35012;47.200;9.748;2023-05-29T01:25:21;6.97;;;4.83;;
49175;SDS011;35012;47.200;9.748;2023-05-29T01:27:49;6.50;;;5.40;;
49175;SDS011;35012;47.200;9.748;2023-05-29T01:30:15;7.27;;;5.13;;
49175;SDS011;35012;47.200;9.748;2023-05-29T01:32:41;6.53;;;4.67;;
49175;SDS011;35012;47.200;9.748;2023-05-29T01:35:08;8.13;;;4.93;;
49175;SDS011;35012;47.200;9.748;2023-05-29T01:37:34;7.17;;;5.23;;
49175;SDS011;35012;47.200;9.748;2023-05-29T01:39:59;6.47;;;5.13;;
49175;SDS011;35012;47.200;9.748;2023-05-29T01:42:26;8.03;;;5.63;;
49175;SDS011;35012;47.200;9.748;2023-05-29T01:44:53;6.60;;;4.83;;
49175;SDS011;35012;47.200;9.748;2023-05-29T01:47:19;7.70;;;5.67;;
49175;SDS011;35012;47.200;9.748;2023-05-29T01:49:44;6.43;;;5.37;;
49175;SDS011;35012;47.200;9.748;2023-05-29T01:52:12;8.20;;;5.40;;
49175;SDS011;35012;47.200;9.748;2023-05-29T01:54:38;6.67;;;4.93;;
49175;SDS011;35012;47.200;9.748;2023-05-29T01:57:03;8.47;;;5.17;;
49175;SDS011;35012;47.200;9.748;2023-05-29T01:59:32;6.73;;;5.10;;
49175;SDS011;35012;47.200;9.748;2023-05-29T02:02:01;6.17;;;4.97;;
49175;SDS011;35012;47.200;9.748;2023-05-29T02:04:31;8.30;;;5.00;;
49175;SDS011;35012;47.200;9.748;2023-05-29T02:06:56;7.73;;;5.37;;
49175;SDS011;35012;47.200;9.748;2023-05-29T02:09:23;6.03;;;5.37;;
49175;SDS011;35012;47.200;9.748;2023-05-29T02:11:48;9.17;;;5.37;;
49175;SDS011;35012;47.200;9.748;2023-05-29T02:14:14;6.03;;;5.30;;
49175;SDS011;35012;47.200;9.748;2023-05-29T02:16:39;8.00;;;5.40;;
49175;SDS011;35012;47.200;9.748;2023-05-29T02:19:06;5.60;;;4.93;;
49175;SDS011;35012;47.200;9.748;2023-05-29T02:21:31;6.37;;;5.10;;
49175;SDS011;35012;47.200;9.748;2023-05-29T02:23:57;7.63;;;5.40;;
49175;SDS011;35012;47.200;9.748;2023-05-29T02:26:22;5.43;;;4.67;;
49175;SDS011;35012;47.200;9.748;2023-05-29T02:28:48;6.73;;;5.10;;
49175;SDS011;35012;47.200;9.748;2023-05-29T02:31:13;7.00;;;5.23;;
49175;SDS011;35012;47.200;9.748;2023-05-29T02:33:39;6.73;;;5.03;;
49175;SDS011;35012;47.200;9.748;2023-05-29T02:36:05;8.03;;;5.37;;
49175;SDS011;35012;47.200;9.748;2023-05-29T02:38:35;9.73;;;5.70;;
49175;SDS011;35012;47.200;9.748;2023-05-29T02:41:01;5.90;;;5.30;;
49175;SDS011;35012;47.200;9.748;2023-05-29T02:43:26;7.13;;;5.50;;
49175;SDS011;35012;47.200;9.748;2023-05-29T02:45:52;6.67;;;5.63;;
49175;SDS011;35012;47.200;9.748;2023-05-29T02:48:17;7.47;;;5.20;;
49175;SDS011;35012;47.200;9.748;2023-05-29T02:50:43;6.70;;;5.30;;
49175;SDS011;35012;47.200;9.748;2023-05-29T02:53:08;7.23;;;5.33;;
49175;SDS011;35012;47.200;9.748;2023-05-29T02:55:34;8.87;;;5.43;;
49175;SDS011;35012;47.200;9.748;2023-05-29T02:58:01;7.33;;;5.50;;
49175;SDS011;35012;47.200;9.748;2023-05-29T03:00:27;6.97;;;5.37;;
49175;SDS011;35012;47.200;9.748;2023-05-29T03:02:53;6.93;;;5.30;;
49175;SDS011;35012;47.200;9.748;2023-05-29T03:05:20;7.93;;;5.07;;
49175;SDS011;35012;47.200;9.748;2023-05-29T03:07:45;6.77;;;4.90;;
49175;SDS011;35012;47.200;9.748;2023-05-29T03:10:11;6.40;;;5.13;;
49175;SDS011;35012;47.200;9.748;2023-05-29T03:12:37;9.83;;;5.37;;
49175;SDS011;35012;47.200;9.748;2023-05-29T03:15:04;7.53;;;5.53;;
49175;SDS011;35012;47.200;9.748;2023-05-29T03:17:30;9.73;;;5.63;;
49175;SDS011;35012;47.200;9.748;2023-05-29T03:19:56;6.07;;;5.40;;
49175;SDS011;35012;47.200;9.748;2023-05-29T03:22:22;6.60;;;5.50;;
49175;SDS011;35012;47.200;9.748;2023-05-29T03:24:48;7.10;;;5.57;;
49175;SDS011;35012;47.200;9.748;2023-05-29T03:27:13;7.50;;;5.53;;
49175;SDS011;35012;47.200;9.748;2023-05-29T03:29:39;6.73;;;5.33;;
49175;SDS011;35012;47.200;9.748;2023-05-29T03:32:04;8.63;;;5.50;;
49175;SDS011;35012;47.200;9.748;2023-05-29T03:34:30;7.67;;;5.50;;
49175;SDS011;35012;47.200;9.748;2023-05-29T03:36:56;7.37;;;5.13;;
49175;SDS011;35012;47.200;9.748;2023-05-29T03:39:22;7.47;;;5.50;;
49175;SDS011;35012;47.200;9.748;2023-05-29T03:41:47;8.23;;;5.50;;
49175;SDS011;35012;47.200;9.748;2023-05-29T03:44:13;6.97;;;5.30;;
49175;SDS011;35012;47.200;9.748;2023-05-29T03:46:38;8.67;;;5.70;;
49175;SDS011;35012;47.200;9.748;2023-05-29T03:49:04;7.20;;;5.83;;
49175;SDS011;35012;47.200;9.748;2023-05-29T03:51:32;8.60;;;5.63;;
49175;SDS011;35012;47.200;9.748;2023-05-29T03:53:57;8.90;;;5.67;;
49175;SDS011;35012;47.200;9.748;2023-05-29T03:56:23;7.80;;;6.07;;
49175;SDS011;35012;47.200;9.748;2023-05-29T03:58:49;7.83;;;5.70;;
49175;SDS011;35012;47.200;9.748;2023-05-29T04:01:15;7.30;;;5.83;;
49175;SDS011;35012;47.200;9.748;2023-05-29T04:03:40;8.53;;;5.93;;
49175;SDS011;35012;47.200;9.748;2023-05-29T04:06:06;7.30;;;5.43;;
49175;SDS011;35012;47.200;9.748;2023-05-29T04:08:32;8.17;;;6.03;;
49175;SDS011;35012;47.200;9.748;2023-05-29T04:10:57;7.13;;;5.37;;
49175;SDS011;35012;47.200;9.748;2023-05-29T04:13:23;11.40;;;5.57;;
49175;SDS011;35012;47.200;9.748;2023-05-29T04:15:48;6.77;;;4.80;;
49175;SDS011;35012;47.200;9.748;2023-05-29T04:18:14;7.43;;;5.63;;
49175;SDS011;35012;47.200;9.748;2023-05-29T04:20:39;6.83;;;5.30;;
49175;SDS011;35012;47.200;9.748;2023-05-29T04:23:05;7.07;;;5.27;;
49175;SDS011;35012;47.200;9.748;2023-05-29T04:25:30;7.97;;;6.00;;
49175;SDS011;35012;47.200;9.748;2023-05-29T04:27:57;10.30;;;6.00;;
49175;SDS011;35012;47.200;9.748;2023-05-29T04:30:22;10.00;;;6.10;;
49175;SDS011;35012;47.200;9.748;2023-05-29T04:32:48;7.27;;;6.00;;
49175;SDS011;35012;47.200;9.748;2023-05-29T04:35:14;6.83;;;5.80;;
49175;SDS011;35012;47.200;9.748;2023-05-29T04:37:39;7.20;;;5.90;;
49175;SDS011;35012;47.200;9.748;2023-05-29T04:40:08;6.47;;;5.50;;
49175;SDS011;35012;47.200;9.748;2023-05-29T04:42:37;9.97;;;6.50;;
49175;SDS011;35012;47.200;9.748;2023-05-29T04:45:03;7.53;;;6.00;;
49175;SDS011;35012;47.200;9.748;2023-05-29T04:47:31;8.70;;;5.90;;
49175;SDS011;35012;47.200;9.748;2023-05-29T04:50:01;10.67;;;5.70;;
49175;SDS011;35012;47.200;9.748;2023-05-29T04:52:27;10.60;;;6.13;;
49175;SDS011;35012;47.200;9.748;2023-05-29T04:54:54;8.17;;;5.87;;
49175;SDS011;35012;47.200;9.748;2023-05-29T04:57:19;8.30;;;6.37;;
49175;SDS011;35012;47.200;9.748;2023-05-29T04:59:45;8.47;;;5.83;;
49175;SDS011;35012;47.200;9.748;2023-05-29T05:02:10;7.37;;;5.57;;
49175;SDS011;35012;47.200;9.748;2023-05-29T05:04:36;9.67;;;5.70;;
49175;SDS011;35012;47.200;9.748;2023-05-29T05:07:02;8.70;;;5.53;;
49175;SDS011;35012;47.200;9.748;2023-05-29T05:09:28;6.50;;;5.23;;
49175;SDS011;35012;47.200;9.748;2023-05-29T05:11:54;6.80;;;5.13;;
49175;SDS011;35012;47.200;9.748;2023-05-29T05:14:20;7.43;;;5.33;;
49175;SDS011;35012;47.200;9.748;2023-05-29T05:16:45;8.03;;;5.40;;
49175;SDS011;35012;47.200;9.748;2023-05-29T05:19:11;6.50;;;4.90;;
49175;SDS011;35012;47.200;9.748;2023-05-29T05:21:36;8.27;;;5.20;;
49175;SDS011;35012;47.200;9.748;2023-05-29T05:24:02;6.57;;;5.20;;
49175;SDS011;35012;47.200;9.748;2023-05-29T05:26:28;7.00;;;5.63;;
49175;SDS011;35012;47.200;9.748;2023-05-29T05:28:53;9.07;;;5.63;;
49175;SDS011;35012;47.200;9.748;2023-05-29T05:31:19;8.37;;;5.50;;
49175;SDS011;35012;47.200;9.748;2023-05-29T05:33:44;34.03;;;6.70;;
49175;SDS011;35012;47.200;9.748;2023-05-29T05:36:10;11.70;;;5.87;;
49175;SDS011;35012;47.200;9.748;2023-05-29T05:38:36;8.67;;;5.40;;
49175;SDS011;35012;47.200;9.748;2023-05-29T05:41:01;7.30;;;5.40;;
49175;SDS011;35012;47.200;9.748;2023-05-29T05:43:27;7.30;;;5.17;;
49175;SDS011;35012;47.200;9.748;2023-05-29T05:45:54;7.50;;;5.30;;
49175;SDS011;35012;47.200;9.748;2023-05-29T05:48:19;6.83;;;5.23;;
49175;SDS011;35012;47.200;9.748;2023-05-29T05:50:45;6.40;;;5.37;;
49175;SDS011;35012;47.200;9.748;2023-05-29T05:53:10;8.10;;;5.63;;
49175;SDS011;35012;47.200;9.748;2023-05-29T05:55:36;8.33;;;5.53;;
49175;SDS011;35012;47.200;9.748;2023-05-29T05:58:01;6.10;;;5.13;;
49175;SDS011;35012;47.200;9.748;2023-05-29T06:00:27;7.20;;;4.97;;
49175;SDS011;35012;47.200;9.748;2023-05-29T06:02:53;6.23;;;5.40;;
49175;SDS011;35012;47.200;9.748;2023-05-29T06:05:18;8.83;;;4.83;;
49175;SDS011;35012;47.200;9.748;2023-05-29T06:07:44;5.80;;;5.07;;
49175;SDS011;35012;47.200;9.748;2023-05-29T06:10:10;6.90;;;5.47;;
49175;SDS011;35012;47.200;9.748;2023-05-29T06:12:36;7.13;;;5.00;;
49175;SDS011;35012;47.200;9.748;2023-05-29T06:15:01;7.63;;;5.67;;
49175;SDS011;35012;47.200;9.748;2023-05-29T06:17:29;7.00;;;5.30;;
49175;SDS011;35012;47.200;9.748;2023-05-29T06:19:54;6.53;;;4.97;;
49175;SDS011;35012;47.200;9.748;2023-05-29T06:22:20;7.10;;;5.13;;
49175;SDS011;35012;47.200;9.748;2023-05-29T06:24:46;9.40;;;5.10;;
49175;SDS011;35012;47.200;9.748;2023-05-29T06:27:11;6.17;;;4.77;;
49175;SDS011;35012;47.200;9.748;2023-05-29T06:29:37;6.07;;;5.03;;
49175;SDS011;35012;47.200;9.748;2023-05-29T06:32:02;6.20;;;4.97;;
49175;SDS011;35012;47.200;9.748;2023-05-29T06:34:28;6.20;;;5.00;;
49175;SDS011;35012;47.200;9.748;2023-05-29T06:36:53;6.10;;;4.73;;
49175;SDS011;35012;47.200;9.748;2023-05-29T06:39:19;5.70;;;4.63;;
49175;SDS011;35012;47.200;9.748;2023-05-29T06:41:45;8.90;;;5.33;;
49175;SDS011;35012;47.200;9.748;2023-05-29T06:44:11;7.47;;;5.00;;
49175;SDS011;35012;47.200;9.748;2023-05-29T06:46:36;8.37;;;4.97;;
49175;SDS011;35012;47.200;9.748;2023-05-29T06:49:02;8.73;;;4.87;;
49175;SDS011;35012;47.200;9.748;2023-05-29T06:51:27;7.30;;;4.93;;
49175;SDS011;35012;47.200;9.748;2023-05-29T06:53:53;8.13;;;5.40;;
49175;SDS011;35012;47.200;9.748;2023-05-29T06:56:18;6.43;;;5.73;;
49175;SDS011;35012;47.200;9.748;2023-05-29T06:58:44;7.00;;;5.50;;
49175;SDS011;35012;47.200;9.748;2023-05-29T07:01:10;6.70;;;5.53;;
49175;SDS011;35012;47.200;9.748;2023-05-29T07:03:36;8.17;;;5.60;;
49175;SDS011;35012;47.200;9.748;2023-05-29T07:06:01;6.50;;;4.93;;
49175;SDS011;35012;47.200;9.748;2023-05-29T07:08:27;6.97;;;5.60;;
49175;SDS011;35012;47.200;9.748;2023-05-29T07:10:53;6.43;;;5.23;;
49175;SDS011;35012;47.200;9.748;2023-05-29T07:13:19;6.70;;;5.07;;
49175;SDS011;35012;47.200;9.748;2023-05-29T07:15:44;7.47;;;5.67;;
49175;SDS011;35012;47.200;9.748;2023-05-29T07:18:10;8.07;;;4.63;;
49175;SDS011;35012;47.200;9.748;2023-05-29T07:20:36;9.00;;;5.83;;
49175;SDS011;35012;47.200;9.748;2023-05-29T07:23:02;6.20;;;4.80;;
49175;SDS011;35012;47.200;9.748;2023-05-29T07:25:28;7.27;;;5.30;;
49175;SDS011;35012;47.200;9.748;2023-05-29T07:27:54;7.30;;;4.63;;
49175;SDS011;35012;47.200;9.748;2023-05-29T07:30:20;6.73;;;4.93;;
49175;SDS011;35012;47.200;9.748;2023-05-29T07:32:45;6.73;;;4.73;;
49175;SDS011;35012;47.200;9.748;2023-05-29T07:35:11;6.13;;;4.80;;
49175;SDS011;35012;47.200;9.748;2023-05-29T07:37:37;7.07;;;5.33;;
49175;SDS011;35012;47.200;9.748;2023-05-29T07:40:02;6.07;;;4.33;;
49175;SDS011;35012;47.200;9.748;2023-05-29T07:42:32;7.17;;;4.70;;
49175;SDS011;35012;47.200;9.748;2023-05-29T07:44:58;5.70;;;4.80;;
49175;SDS011;35012;47.200;9.748;2023-05-29T07:47:23;11.40;;;10.20;;
49175;SDS011;35012;47.200;9.748;2023-05-29T07:49:49;5.87;;;4.90;;
49175;SDS011;35012;47.200;9.748;2023-05-29T07:52:15;6.20;;;4.87;;
49175;SDS011;35012;47.200;9.748;2023-05-29T07:54:40;6.47;;;4.33;;
49175;SDS011;35012;47.200;9.748;2023-05-29T07:57:06;5.90;;;4.77;;
49175;SDS011;35012;47.200;9.748;2023-05-29T07:59:35;6.73;;;4.83;;
49175;SDS011;35012;47.200;9.748;2023-05-29T08:02:01;6.10;;;4.70;;
49175;SDS011;35012;47.200;9.748;2023-05-29T08:04:28;6.30;;;4.93;;
49175;SDS011;35012;47.200;9.748;2023-05-29T08:06:54;6.07;;;4.67;;
49175;SDS011;35012;47.200;9.748;2023-05-29T08:09:20;6.30;;;5.00;;
49175;SDS011;35012;47.200;9.748;2023-05-29T08:11:45;6.97;;;5.17;;
49175;SDS011;35012;47.200;9.748;2023-05-29T08:14:12;7.97;;;5.50;;
49175;SDS011;35012;47.200;9.748;2023-05-29T08:16:38;7.63;;;5.50;;
49175;SDS011;35012;47.200;9.748;2023-05-29T08:19:03;6.50;;;5.13;;
49175;SDS011;35012;47.200;9.748;2023-05-29T08:21:32;10.77;;;5.17;;
49175;SDS011;35012;47.200;9.748;2023-05-29T08:23:58;7.10;;;5.07;;
49175;SDS011;35012;47.200;9.748;2023-05-29T08:26:24;5.33;;;4.53;;
49175;SDS011;35012;47.200;9.748;2023-05-29T08:28:49;6.77;;;4.30;;
49175;SDS011;35012;47.200;9.748;2023-05-29T08:31:15;7.40;;;4.80;;
49175;SDS011;35012;47.200;9.748;2023-05-29T08:33:41;6.33;;;4.80;;
49175;SDS011;35012;47.200;9.748;2023-05-29T08:36:06;7.33;;;4.90;;
49175;SDS011;35012;47.200;9.748;2023-05-29T08:38:33;7.13;;;5.00;;
49175;SDS011;35012;47.200;9.748;2023-05-29T08:41:00;6.53;;;5.07;;
49175;SDS011;35012;47.200;9.748;2023-05-29T08:43:28;6.67;;;4.97;;
49175;SDS011;35012;47.200;9.748;2023-05-29T08:45:56;8.57;;;5.00;;
49175;SDS011;35012;47.200;9.748;2023-05-29T08:48:25;8.17;;;5.27;;
49175;SDS011;35012;47.200;9.748;2023-05-29T08:50:52;6.37;;;4.80;;
49175;SDS011;35012;47.200;9.748;2023-05-29T08:53:20;7.23;;;4.73;;
49175;SDS011;35012;47.200;9.748;2023-05-29T08:55:47;6.00;;;4.90;;
49175;SDS011;35012;47.200;9.748;2023-05-29T08:58:16;6.17;;;4.57;;
49175;SDS011;35012;47.200;9.748;2023-05-29T09:00:42;6.13;;;4.80;;
49175;SDS011;35012;47.200;9.748;2023-05-29T09:03:07;5.73;;;5.00;;
49175;SDS011;35012;47.200;9.748;2023-05-29T09:05:34;7.27;;;4.97;;
49175;SDS011;35012;47.200;9.748;2023-05-29T09:08:04;8.03;;;5.20;;
49175;SDS011;35012;47.200;9.748;2023-05-29T09:10:30;6.30;;;4.70;;
49175;SDS011;35012;47.200;9.748;2023-05-29T09:12:58;7.73;;;4.50;;
49175;SDS011;35012;47.200;9.748;2023-05-29T09:15:24;7.13;;;4.70;;
49175;SDS011;35012;47.200;9.748;2023-05-29T09:17:56;6.17;;;4.93;;
49175;SDS011;35012;47.200;9.748;2023-05-29T09:20:23;5.87;;;4.50;;
49175;SDS011;35012;47.200;9.748;2023-05-29T09:23:07;7.40;;;4.80;;
49175;SDS011;35012;47.200;9.748;2023-05-29T09:25:34;5.93;;;4.73;;
49175;SDS011;35012;47.200;9.748;2023-05-29T09:28:02;7.03;;;4.83;;
49175;SDS011;35012;47.200;9.748;2023-05-29T09:30:39;6.00;;;4.57;;
49175;SDS011;35012;47.200;9.748;2023-05-29T09:33:06;7.47;;;4.93;;
49175;SDS011;35012;47.200;9.748;2023-05-29T09:35:38;7.23;;;5.10;;
49175;SDS011;35012;47.200;9.748;2023-05-29T09:38:16;5.17;;;4.57;;
49175;SDS011;35012;47.200;9.748;2023-05-29T09:40:42;6.90;;;4.93;;
49175;SDS011;35012;47.200;9.748;2023-05-29T09:43:12;8.73;;;4.93;;
49175;SDS011;35012;47.200;9.748;2023-05-29T09:45:39;6.50;;;5.13;;
49175;SDS011;35012;47.200;9.748;2023-05-29T09:48:16;6.93;;;4.90;;
49175;SDS011;35012;47.200;9.748;2023-05-29T09:50:43;7.37;;;5.03;;
49175;SDS011;35012;47.200;9.748;2023-05-29T09:55:44;7.77;;;4.97;;
49175;SDS011;35012;47.200;9.748;2023-05-29T09:58:19;6.23;;;4.53;;
49175;SDS011;35012;47.200;9.748;2023-05-29T10:00:45;6.77;;;4.70;;
49175;SDS011;35012;47.200;9.748;2023-05-29T10:03:12;6.83;;;4.70;;
49175;SDS011;35012;47.200;9.748;2023-05-29T10:05:42;6.80;;;4.50;;
49175;SDS011;35012;47.200;9.748;2023-05-29T10:08:08;7.47;;;4.70;;
49175;SDS011;35012;47.200;9.748;2023-05-29T10:10:37;7.53;;;4.83;;
49175;SDS011;35012;47.200;9.748;2023-05-29T10:13:06;7.60;;;5.10;;
49175;SDS011;35012;47.200;9.748;2023-05-29T10:15:37;6.80;;;4.60;;
49175;SDS011;35012;47.200;9.748;2023-05-29T10:18:03;7.10;;;4.90;;
49175;SDS011;35012;47.200;9.748;2023-05-29T10:20:33;9.27;;;5.07;;
49175;SDS011;35012;47.200;9.748;2023-05-29T10:23:00;6.90;;;5.03;;
49175;SDS011;35012;47.200;9.748;2023-05-29T10:25:27;7.93;;;5.30;;
49175;SDS011;35012;47.200;9.748;2023-05-29T10:27:53;7.13;;;5.13;;
49175;SDS011;35012;47.200;9.748;2023-05-29T10:30:30;8.40;;;4.60;;
49175;SDS011;35012;47.200;9.748;2023-05-29T10:38:16;6.00;;;4.60;;
49175;SDS011;35012;47.200;9.748;2023-05-29T10:40:43;5.73;;;4.57;;
49175;SDS011;35012;47.200;9.748;2023-05-29T10:43:13;6.83;;;4.80;;
49175;SDS011;35012;47.200;9.748;2023-05-29T10:45:55;6.95;;;4.95;;
49175;SDS011;35012;47.200;9.748;2023-05-29T10:50:53;7.80;;;4.33;;
49175;SDS011;35012;47.200;9.748;2023-05-29T10:53:23;7.20;;;4.70;;
49175;SDS011;35012;47.200;9.748;2023-05-29T10:55:51;6.57;;;4.70;;
49175;SDS011;35012;47.200;9.748;2023-05-29T10:58:19;5.30;;;4.57;;
49175;SDS011;35012;47.200;9.748;2023-05-29T11:00:45;7.05;;;4.53;;
49175;SDS011;35012;47.200;9.748;2023-05-29T11:03:14;8.43;;;4.95;;
49175;SDS011;35012;47.200;9.748;2023-05-29T11:08:45;7.60;;;4.55;;
49175;SDS011;35012;47.200;9.748;2023-05-29T11:11:11;6.97;;;4.90;;
49175;SDS011;35012;47.200;9.748;2023-05-29T11:13:41;7.05;;;4.93;;
49175;SDS011;35012;47.200;9.748;2023-05-29T11:16:14;7.78;;;4.95;;
49175;SDS011;35012;47.200;9.748;2023-05-29T11:18:46;7.22;;;5.07;;
49175;SDS011;35012;47.200;9.748;2023-05-29T11:24:00;14.63;;;5.32;;
49175;SDS011;35012;47.200;9.748;2023-05-29T11:26:36;6.43;;;4.40;;
49175;SDS011;35012;47.200;9.748;2023-05-29T11:29:03;7.40;;;4.70;;
49175;SDS011;35012;47.200;9.748;2023-05-29T11:31:31;6.18;;;4.60;;
49175;SDS011;35012;47.200;9.748;2023-05-29T11:34:00;6.22;;;4.55;;
49175;SDS011;35012;47.200;9.748;2023-05-29T11:36:28;5.47;;;4.50;;
49175;SDS011;35012;47.200;9.748;2023-05-29T11:38:56;7.03;;;4.88;;
49175;SDS011;35012;47.200;9.748;2023-05-29T11:41:22;5.32;;;4.63;;
49175;SDS011;35012;47.200;9.748;2023-05-29T11:43:57;6.97;;;4.78;;
49175;SDS011;35012;47.200;9.748;2023-05-29T11:46:31;6.75;;;4.53;;
49175;SDS011;35012;47.200;9.748;2023-05-29T11:48:57;7.75;;;4.63;;
49175;SDS011;35012;47.200;9.748;2023-05-29T11:51:23;5.85;;;4.28;;
49175;SDS011;35012;47.200;9.748;2023-05-29T11:53:49;7.03;;;4.85;;
49175;SDS011;35012;47.200;9.748;2023-05-29T11:56:18;7.95;;;4.57;;
49175;SDS011;35012;47.200;9.748;2023-05-29T11:58:43;7.18;;;4.72;;
49175;SDS011;35012;47.200;9.748;2023-05-29T12:01:09;6.30;;;4.63;;
49175;SDS011;35012;47.200;9.748;2023-05-29T12:06:10;7.28;;;4.55;;
49175;SDS011;35012;47.200;9.748;2023-05-29T12:08:36;6.05;;;4.75;;
49175;SDS011;35012;47.200;9.748;2023-05-29T12:11:02;7.00;;;4.72;;
49175;SDS011;35012;47.200;9.748;2023-05-29T12:13:28;6.78;;;4.00;;
49175;SDS011;35012;47.200;9.748;2023-05-29T12:15:55;6.00;;;4.22;;
49175;SDS011;35012;47.200;9.748;2023-05-29T12:18:21;7.55;;;4.53;;
49175;SDS011;35012;47.200;9.748;2023-05-29T12:20:47;5.78;;;3.97;;
49175;SDS011;35012;47.200;9.748;2023-05-29T12:23:13;6.18;;;4.50;;
49175;SDS011;35012;47.200;9.748;2023-05-29T12:25:38;6.45;;;3.95;;
49175;SDS011;35012;47.200;9.748;2023-05-29T12:28:04;5.85;;;4.35;;
49175;SDS011;35012;47.200;9.748;2023-05-29T12:30:30;5.03;;;3.90;;
49175;SDS011;35012;47.200;9.748;2023-05-29T12:32:56;5.35;;;4.68;;
49175;SDS011;35012;47.200;9.748;2023-05-29T12:35:22;5.75;;;4.40;;
49175;SDS011;35012;47.200;9.748;2023-05-29T12:42:53;5.53;;;4.20;;
49175;SDS011;35012;47.200;9.748;2023-05-29T12:45:21;5.82;;;4.40;;
49175;SDS011;35012;47.200;9.748;2023-05-29T12:47:50;5.53;;;4.15;;
49175;SDS011;35012;47.200;9.748;2023-05-29T12:52:57;7.28;;;3.83;;
49175;SDS011;35012;47.200;9.748;2023-05-29T12:55:28;8.13;;;4.78;;
49175;SDS011;35012;47.200;9.748;2023-05-29T12:57:55;6.47;;;4.53;;
49175;SDS011;35012;47.200;9.748;2023-05-29T13:00:21;5.70;;;4.35;;
49175;SDS011;35012;47.200;9.748;2023-05-29T13:02:48;7.40;;;4.22;;
49175;SDS011;35012;47.200;9.748;2023-05-29T13:05:14;5.85;;;4.13;;
49175;SDS011;35012;47.200;9.748;2023-05-29T13:07:41;4.88;;;4.10;;
49175;SDS011;35012;47.200;9.748;2023-05-29T13:10:07;6.07;;;4.82;;
49175;SDS011;35012;47.200;9.748;2023-05-29T13:12:34;7.63;;;4.55;;
49175;SDS011;35012;47.200;9.748;2023-05-29T13:15:00;7.00;;;4.47;;
49175;SDS011;35012;47.200;9.748;2023-05-29T13:17:25;4.72;;;4.13;;
49175;SDS011;35012;47.200;9.748;2023-05-29T13:19:51;5.53;;;4.38;;
49175;SDS011;35012;47.200;9.748;2023-05-29T13:22:16;5.30;;;4.38;;
49175;SDS011;35012;47.200;9.748;2023-05-29T13:24:42;4.70;;;4.20;;
49175;SDS011;35012;47.200;9.748;2023-05-29T13:27:07;5.85;;;4.45;;
49175;SDS011;35012;47.200;9.748;2023-05-29T13:29:33;5.32;;;4.35;;
49175;SDS011;35012;47.200;9.748;2023-05-29T13:32:00;6.43;;;4.40;;
49175;SDS011;35012;47.200;9.748;2023-05-29T13:34:25;6.28;;;4.82;;
49175;SDS011;35012;47.200;9.748;2023-05-29T13:36:56;5.07;;;3.88;;
49175;SDS011;35012;47.200;9.748;2023-05-29T13:39:22;6.85;;;4.45;;
49175;SDS011;35012;47.200;9.748;2023-05-29T13:41:48;5.55;;;3.88;;
49175;SDS011;35012;47.200;9.748;2023-05-29T13:44:13;6.47;;;4.20;;
49175;SDS011;35012;47.200;9.748;2023-05-29T13:46:39;6.68;;;4.20;;
49175;SDS011;35012;47.200;9.748;2023-05-29T13:49:04;6.75;;;4.10;;
49175;SDS011;35012;47.200;9.748;2023-05-29T13:51:30;8.02;;;4.18;;
49175;SDS011;35012;47.200;9.748;2023-05-29T13:53:55;5.05;;;3.83;;
49175;SDS011;35012;47.200;9.748;2023-05-29T13:56:21;6.85;;;4.35;;
49175;SDS011;35012;47.200;9.748;2023-05-29T13:58:47;5.80;;;4.28;;
49175;SDS011;35012;47.200;9.748;2023-05-29T14:01:13;5.13;;;4.18;;
49175;SDS011;35012;47.200;9.748;2023-05-29T14:03:40;4.72;;;4.20;;
49175;SDS011;35012;47.200;9.748;2023-05-29T14:06:05;6.72;;;3.88;;
49175;SDS011;35012;47.200;9.748;2023-05-29T14:08:31;5.15;;;4.22;;
49175;SDS011;35012;47.200;9.748;2023-05-29T14:10:56;5.25;;;4.30;;
49175;SDS011;35012;47.200;9.748;2023-05-29T14:13:22;5.57;;;4.00;;
49175;SDS011;35012;47.200;9.748;2023-05-29T14:15:47;6.57;;;3.97;;
49175;SDS011;35012;47.200;9.748;2023-05-29T14:18:14;7.53;;;4.18;;
49175;SDS011;35012;47.200;9.748;2023-05-29T14:20:39;4.53;;;3.95;;
49175;SDS011;35012;47.200;9.748;2023-05-29T14:23:05;5.97;;;4.18;;
49175;SDS011;35012;47.200;9.748;2023-05-29T14:25:30;6.05;;;3.92;;
49175;SDS011;35012;47.200;9.748;2023-05-29T14:27:56;5.43;;;3.75;;
49175;SDS011;35012;47.200;9.748;2023-05-29T14:30:21;5.22;;;4.07;;
49175;SDS011;35012;47.200;9.748;2023-05-29T14:32:47;4.60;;;4.00;;
49175;SDS011;35012;47.200;9.748;2023-05-29T14:35:13;4.53;;;3.90;;
49175;SDS011;35012;47.200;9.748;2023-05-29T14:37:38;4.15;;;3.67;;
49175;SDS011;35012;47.200;9.748;2023-05-29T14:40:04;5.57;;;4.03;;
49175;SDS011;35012;47.200;9.748;2023-05-29T14:42:30;4.65;;;4.07;;
49175;SDS011;35012;47.200;9.748;2023-05-29T14:44:58;5.13;;;4.10;;
49175;SDS011;35012;47.200;9.748;2023-05-29T14:47:23;6.18;;;4.57;;
49175;SDS011;35012;47.200;9.748;2023-05-29T14:49:48;4.50;;;3.97;;
49175;SDS011;35012;47.200;9.748;2023-05-29T14:52:14;6.05;;;4.18;;
49175;SDS011;35012;47.200;9.748;2023-05-29T14:54:39;7.70;;;4.07;;
49175;SDS011;35012;47.200;9.748;2023-05-29T14:57:05;5.60;;;4.30;;
49175;SDS011;35012;47.200;9.748;2023-05-29T14:59:30;6.88;;;4.35;;
49175;SDS011;35012;47.200;9.748;2023-05-29T15:01:56;8.48;;;4.10;;
49175;SDS011;35012;47.200;9.748;2023-05-29T15:04:23;7.03;;;4.60;;
49175;SDS011;35012;47.200;9.748;2023-05-29T15:06:49;6.03;;;4.03;;
49175;SDS011;35012;47.200;9.748;2023-05-29T15:09:14;6.00;;;4.05;;
49175;SDS011;35012;47.200;9.748;2023-05-29T15:11:40;6.15;;;4.43;;
49175;SDS011;35012;47.200;9.748;2023-05-29T15:14:05;6.00;;;4.10;;
49175;SDS011;35012;47.200;9.748;2023-05-29T15:16:31;5.78;;;4.10;;